createdAt,value
2022-12-04T00:01:32.672Z,30.30
2022-12-04T00:04:01.962Z,24.60
2022-12-04T00:06:30.968Z,33.40
2022-12-04T00:09:01.060Z,21.10
2022-12-04T00:11:32.027Z,24.90
2022-12-04T00:14:07.028Z,24.80
2022-12-04T00:16:37.331Z,25.50
2022-12-04T00:19:06.379Z,21.50
2022-12-04T00:21:36.193Z,26.20
2022-12-04T00:24:06.327Z,19.60
2022-12-04T00:29:05.245Z,20.20
2022-12-04T00:34:08.042Z,22.70
2022-12-04T00:36:38.642Z,16.90
2022-12-04T00:39:09.048Z,22.20
2022-12-04T00:41:39.101Z,23.00
2022-12-04T00:44:09.118Z,26.50
2022-12-04T00:46:39.260Z,18.70
2022-12-04T00:51:38.430Z,21.00
2022-12-04T00:54:07.996Z,25.00
2022-12-04T00:56:37.878Z,24.60
2022-12-04T00:59:06.730Z,22.40
2022-12-04T01:01:35.758Z,22.90
2022-12-04T01:04:04.922Z,19.20
2022-12-04T01:06:35.865Z,21.80
2022-12-04T01:09:06.974Z,21.70
2022-12-04T01:11:37.562Z,23.10
2022-12-04T01:14:06.856Z,17.10
2022-12-04T01:16:39.604Z,24.40
2022-12-04T01:19:12.074Z,20.90
2022-12-04T01:21:42.803Z,24.60
2022-12-04T01:24:13.673Z,20.50
2022-12-04T01:26:43.704Z,22.40
2022-12-04T01:29:13.210Z,27.00
2022-12-04T01:34:12.768Z,17.20
2022-12-04T01:36:42.225Z,24.70
2022-12-04T01:39:11.119Z,20.90
2022-12-04T01:41:41.470Z,20.80
2022-12-04T01:44:23.808Z,19.70
2022-12-04T01:47:00.445Z,21.10
2022-12-04T01:49:49.081Z,22.20
2022-12-04T01:52:23.287Z,15.70
2022-12-04T01:54:58.009Z,19.60
2022-12-04T01:57:32.150Z,24.80
2022-12-04T02:00:10.388Z,26.80
2022-12-04T02:02:44.266Z,15.70
2022-12-04T02:05:17.321Z,17.30
2022-12-04T02:07:49.147Z,23.20
2022-12-04T02:10:25.264Z,19.10
2022-12-04T02:13:19.022Z,16.70
2022-12-04T02:16:03.068Z,22.90
2022-12-04T02:19:13.230Z,17.90
2022-12-04T02:21:48.488Z,12.60
2022-12-04T02:24:25.046Z,17.80
2022-12-04T02:27:10.378Z,22.50
2022-12-04T02:29:58.119Z,22.20
2022-12-04T02:32:46.954Z,15.20
2022-12-04T02:35:23.679Z,23.20
2022-12-04T02:38:05.718Z,21.20
2022-12-04T02:41:07.166Z,15.50
2022-12-04T02:43:45.131Z,26.20
2022-12-04T02:46:25.549Z,20.40
2022-12-04T02:49:02.143Z,21.20
2022-12-04T02:51:37.388Z,26.10
2022-12-04T02:54:15.195Z,17.00
2022-12-04T02:56:49.546Z,18.00
2022-12-04T02:59:25.983Z,20.60
2022-12-04T03:02:01.158Z,21.80
2022-12-04T03:04:32.142Z,18.20
2022-12-04T03:07:12.218Z,15.30
2022-12-04T03:12:51.277Z,21.10
2022-12-04T03:15:39.909Z,19.80
2022-12-04T03:18:19.125Z,35.50
2022-12-04T03:20:54.040Z,23.50
2022-12-04T03:23:32.165Z,24.00
2022-12-04T03:26:36.276Z,22.20
2022-12-04T03:29:28.905Z,18.60
2022-12-04T03:32:06.055Z,15.90
2022-12-04T03:34:56.731Z,22.50
2022-12-04T03:37:54.186Z,16.70
2022-12-04T03:40:37.439Z,21.60
2022-12-04T03:43:14.718Z,19.80
2022-12-04T03:45:58.599Z,14.00
2022-12-04T03:49:16.577Z,14.70
2022-12-04T03:52:02.093Z,19.70
2022-12-04T03:54:46.066Z,11.40
2022-12-04T03:57:24.516Z,13.80
2022-12-04T04:00:09.444Z,14.40
2022-12-04T04:02:50.043Z,16.30
2022-12-04T04:05:21.916Z,16.10
2022-12-04T04:08:19.474Z,15.10
2022-12-04T04:10:52.410Z,14.60
2022-12-04T04:13:51.278Z,16.70
2022-12-04T04:16:42.346Z,16.80
2022-12-04T04:19:33.083Z,16.00
2022-12-04T04:22:24.639Z,18.30
2022-12-04T04:25:05.724Z,17.30
2022-12-04T04:27:35.204Z,13.10
2022-12-04T04:30:06.868Z,15.30
2022-12-04T04:32:47.762Z,17.20
2022-12-04T04:35:26.003Z,24.20
2022-12-04T04:38:13.686Z,17.50
2022-12-04T04:40:46.102Z,14.30
2022-12-04T04:43:26.772Z,16.90
2022-12-04T04:46:06.111Z,16.40
2022-12-04T04:48:46.990Z,15.90
2022-12-04T04:51:17.203Z,13.80
2022-12-04T04:53:56.134Z,17.60
2022-12-04T04:56:26.162Z,10.70
2022-12-04T04:58:55.128Z,24.50
2022-12-04T05:01:28.527Z,15.50
2022-12-04T05:03:57.412Z,15.20
2022-12-04T05:06:27.903Z,15.20
2022-12-04T05:08:57.678Z,18.60
2022-12-04T05:11:28.032Z,17.10
2022-12-04T05:16:27.069Z,22.40
2022-12-04T05:19:15.264Z,12.40
2022-12-04T05:21:44.747Z,16.20
2022-12-04T05:24:14.113Z,22.10
2022-12-04T05:26:43.758Z,19.40
2022-12-04T05:29:13.243Z,16.40
2022-12-04T05:31:43.027Z,19.60
2022-12-04T05:34:12.704Z,21.80
2022-12-04T05:36:42.074Z,19.10
2022-12-04T05:39:11.364Z,25.70
2022-12-04T05:41:40.686Z,20.10
2022-12-04T05:44:09.764Z,18.90
2022-12-04T05:46:38.914Z,23.70
2022-12-04T05:49:08.768Z,35.00
2022-12-04T05:54:07.475Z,20.10
2022-12-04T05:56:36.874Z,13.00
2022-12-04T05:59:09.464Z,13.90
2022-12-04T06:01:38.203Z,18.10
2022-12-04T06:04:07.851Z,13.70
2022-12-04T06:06:36.937Z,16.40
2022-12-04T06:09:07.630Z,18.80
2022-12-04T06:11:38.512Z,21.60
2022-12-04T06:14:10.709Z,18.60
2022-12-04T06:16:43.025Z,15.20
2022-12-04T06:19:18.615Z,24.40
2022-12-04T06:21:50.315Z,20.20
2022-12-04T06:24:23.553Z,25.00
2022-12-04T06:27:26.771Z,25.40
2022-12-04T06:29:46.821Z,16.80
2022-12-04T06:32:21.192Z,17.20
2022-12-04T06:34:55.053Z,15.70
2022-12-04T06:37:25.366Z,22.90
2022-12-04T06:39:54.279Z,17.40
2022-12-04T06:42:23.365Z,20.90
2022-12-04T06:44:52.350Z,22.60
2022-12-04T06:47:21.242Z,19.10
2022-12-04T06:49:51.730Z,17.20
2022-12-04T06:54:49.342Z,13.20
2022-12-04T06:57:18.127Z,18.20
2022-12-04T06:59:47.230Z,17.60
2022-12-04T07:02:16.376Z,12.60
2022-12-04T07:04:45.760Z,16.30
2022-12-04T07:07:15.837Z,21.60
2022-12-04T07:09:45.794Z,18.90
2022-12-04T07:12:15.784Z,24.10
2022-12-04T07:14:44.658Z,24.70
2022-12-04T07:17:13.355Z,21.60
2022-12-04T07:19:42.139Z,32.00
2022-12-04T07:22:11.023Z,35.80
2022-12-04T07:24:39.504Z,22.00
2022-12-04T07:27:08.305Z,21.30
2022-12-04T07:29:37.083Z,24.90
2022-12-04T07:32:05.952Z,16.70
2022-12-04T07:34:36.191Z,18.20
2022-12-04T07:37:04.671Z,16.70
2022-12-04T07:39:33.869Z,12.10
2022-12-04T07:42:02.455Z,13.60
2022-12-04T07:44:32.573Z,17.00
2022-12-04T07:47:01.255Z,15.00
2022-12-04T07:49:29.945Z,12.90
2022-12-04T07:51:58.528Z,12.50
2022-12-04T07:54:27.326Z,10.70
2022-12-04T07:56:56.714Z,12.60
2022-12-04T07:59:25.409Z,17.20
2022-12-04T08:01:54.053Z,15.80
2022-12-04T08:04:23.044Z,18.00
2022-12-04T08:06:52.182Z,15.20
2022-12-04T08:09:20.861Z,17.00
2022-12-04T08:11:49.472Z,13.50
2022-12-04T08:14:18.231Z,18.60
2022-12-04T08:16:52.873Z,15.10
2022-12-04T08:19:22.770Z,17.20
2022-12-04T08:21:51.764Z,17.20
2022-12-04T08:24:20.353Z,15.80
2022-12-04T08:26:49.751Z,14.70
2022-12-04T08:29:18.431Z,10.40
2022-12-04T08:31:47.023Z,19.00
2022-12-04T08:34:16.238Z,17.00
2022-12-04T08:36:44.795Z,15.70
2022-12-04T08:39:13.684Z,15.70
2022-12-04T08:41:42.272Z,13.50
2022-12-04T08:44:10.853Z,17.20
2022-12-04T08:46:39.723Z,17.60
2022-12-04T08:49:08.737Z,16.80
2022-12-04T08:51:37.829Z,18.00
2022-12-04T08:54:09.216Z,14.50
2022-12-04T08:56:38.067Z,15.60
2022-12-04T08:59:07.269Z,15.30
2022-12-04T09:01:35.767Z,16.50
2022-12-04T09:04:04.602Z,13.70
2022-12-04T09:06:33.636Z,17.20
2022-12-04T09:09:02.210Z,13.20
2022-12-04T09:11:32.959Z,14.60
2022-12-04T09:14:02.520Z,11.50
2022-12-04T09:16:31.430Z,13.60
2022-12-04T09:19:00.539Z,11.70
2022-12-04T09:21:29.533Z,18.20
2022-12-04T09:23:59.856Z,12.40
2022-12-04T09:26:31.774Z,13.70
2022-12-04T09:29:02.243Z,13.60
2022-12-04T09:31:32.473Z,12.00
2022-12-04T09:34:02.184Z,9.50
2022-12-04T09:36:30.962Z,11.30
2022-12-04T09:38:59.858Z,12.60
2022-12-04T09:41:57.415Z,12.00
2022-12-04T09:44:41.259Z,11.40
2022-12-04T09:47:23.665Z,13.00
2022-12-04T09:49:58.483Z,12.40
2022-12-04T09:52:39.545Z,13.30
2022-12-04T09:55:16.273Z,11.20
2022-12-04T09:57:48.387Z,8.80
2022-12-04T10:00:19.752Z,10.80
2022-12-04T10:03:12.825Z,13.50
2022-12-04T10:06:00.447Z,11.40
2022-12-04T10:08:35.488Z,11.00
2022-12-04T10:11:32.515Z,12.70
2022-12-04T10:14:29.067Z,11.50
2022-12-04T10:17:32.684Z,13.80
2022-12-04T10:20:04.636Z,12.80
2022-12-04T10:23:24.928Z,12.60
2022-12-04T10:25:55.557Z,11.00
2022-12-04T10:28:34.796Z,12.90
2022-12-04T10:31:06.367Z,10.70
2022-12-04T10:33:47.992Z,11.10
2022-12-04T10:36:21.934Z,11.80
2022-12-04T10:38:57.290Z,11.60
2022-12-04T10:41:52.286Z,13.20
2022-12-04T10:44:21.381Z,14.40
2022-12-04T10:46:53.922Z,11.00
2022-12-04T10:49:36.007Z,12.00
2022-12-04T10:52:05.458Z,12.60
2022-12-04T10:54:40.766Z,13.00
2022-12-04T10:57:14.299Z,11.10
2022-12-04T10:59:50.148Z,11.90
2022-12-04T11:02:28.088Z,12.90
2022-12-04T11:04:59.663Z,11.10
2022-12-04T11:07:32.661Z,11.80
2022-12-04T11:10:10.147Z,10.70
2022-12-04T11:12:38.670Z,11.70
2022-12-04T11:15:07.153Z,11.40
2022-12-04T11:17:36.149Z,11.80
2022-12-04T11:20:28.072Z,13.20
2022-12-04T11:22:59.114Z,11.40
2022-12-04T11:25:34.559Z,10.60
2022-12-04T11:28:04.499Z,9.70
2022-12-04T11:30:38.348Z,9.80
2022-12-04T11:33:18.836Z,9.50
2022-12-04T11:35:57.409Z,9.40
2022-12-04T11:38:28.613Z,9.00
2022-12-04T11:40:59.351Z,9.60
2022-12-04T11:43:30.455Z,10.00
2022-12-04T11:46:06.760Z,10.00
2022-12-04T11:48:44.312Z,11.30
2022-12-04T11:51:24.185Z,11.70
2022-12-04T11:54:12.022Z,12.20
2022-12-04T11:56:45.926Z,9.00
2022-12-04T11:59:39.697Z,8.30
2022-12-04T12:02:20.488Z,10.70
2022-12-04T12:05:18.954Z,10.00
2022-12-04T12:08:02.580Z,8.50
2022-12-04T12:10:58.612Z,10.60
2022-12-04T12:13:54.332Z,9.40
2022-12-04T12:16:38.226Z,8.60
2022-12-04T12:19:16.077Z,9.00
2022-12-04T12:21:50.399Z,9.50
2022-12-04T12:24:27.795Z,10.80
2022-12-04T12:27:46.508Z,10.20
2022-12-04T12:30:23.692Z,9.50
2022-12-04T12:33:08.385Z,9.50
2022-12-04T12:35:41.887Z,9.20
2022-12-04T12:38:16.824Z,10.10
2022-12-04T12:40:51.338Z,10.90
2022-12-04T12:43:33.324Z,9.70
2022-12-04T12:46:20.612Z,10.40
2022-12-04T12:49:23.447Z,7.20
2022-12-04T12:51:58.995Z,8.80
2022-12-04T12:54:44.578Z,10.70
2022-12-04T12:57:29.855Z,9.40
2022-12-04T13:00:05.204Z,10.70
2022-12-04T13:02:47.264Z,9.30
2022-12-04T13:05:25.797Z,8.50
2022-12-04T13:08:05.831Z,10.70
2022-12-04T13:10:54.100Z,10.90
2022-12-04T13:13:27.495Z,9.50
2022-12-04T13:16:12.730Z,9.60
2022-12-04T13:18:48.728Z,10.00
2022-12-04T13:21:37.584Z,10.70
2022-12-04T13:24:27.879Z,10.80
2022-12-04T13:27:05.573Z,13.00
2022-12-04T13:30:04.057Z,10.70
2022-12-04T13:32:42.189Z,12.10
2022-12-04T13:35:38.703Z,16.30
2022-12-04T13:38:23.974Z,13.20
2022-12-04T13:40:57.984Z,11.40
2022-12-04T13:43:35.685Z,10.50
2022-12-04T13:46:26.220Z,13.10
2022-12-04T13:48:55.864Z,12.80
2022-12-04T13:51:39.730Z,10.90
2022-12-04T13:54:11.793Z,11.80
2022-12-04T13:56:48.916Z,12.70
2022-12-04T13:59:32.464Z,11.50
2022-12-04T14:02:21.933Z,12.90
2022-12-04T14:04:59.550Z,12.10
2022-12-04T14:07:34.006Z,11.20
2022-12-04T14:10:14.567Z,11.30
2022-12-04T14:12:50.933Z,12.30
2022-12-04T14:15:26.090Z,11.60
2022-12-04T14:18:11.751Z,13.60
2022-12-04T14:20:42.847Z,14.50
2022-12-04T14:23:26.460Z,14.10
2022-12-04T14:25:58.086Z,15.50
2022-12-04T14:28:28.613Z,19.00
2022-12-04T14:31:09.387Z,21.50
2022-12-04T14:33:48.719Z,20.90
2022-12-04T14:36:33.786Z,20.30
2022-12-04T14:39:34.109Z,18.60
2022-12-04T14:42:14.060Z,14.30
2022-12-04T14:44:45.807Z,14.20
2022-12-04T14:47:40.516Z,10.70
2022-12-04T14:50:15.033Z,16.10
2022-12-04T14:53:02.259Z,17.50
2022-12-04T14:55:52.244Z,20.30
2022-12-04T14:58:31.892Z,24.20
2022-12-04T15:01:00.570Z,20.50
2022-12-04T15:03:34.825Z,18.60
2022-12-04T15:06:12.279Z,31.80
2022-12-04T15:08:50.952Z,28.20
2022-12-04T15:11:39.348Z,26.10
2022-12-04T15:14:14.687Z,23.10
2022-12-04T15:16:43.810Z,48.70
2022-12-04T15:19:23.324Z,45.40
2022-12-04T15:21:52.367Z,65.20
2022-12-04T15:24:23.613Z,36.60
2022-12-04T15:26:54.500Z,32.00
2022-12-04T15:29:28.209Z,30.40
2022-12-04T15:32:02.577Z,25.50
2022-12-04T15:34:43.498Z,25.70
2022-12-04T15:37:25.935Z,27.40
2022-12-04T15:39:57.812Z,31.90
2022-12-04T15:42:28.324Z,25.00
2022-12-04T15:45:03.953Z,25.50
2022-12-04T15:47:54.353Z,27.40
2022-12-04T15:52:55.276Z,30.80
2022-12-04T15:55:25.510Z,27.40
2022-12-04T16:00:38.009Z,21.60
2022-12-04T16:03:23.483Z,41.80
2022-12-04T16:06:07.150Z,40.80
2022-12-04T16:08:39.316Z,30.60
2022-12-04T16:11:23.070Z,27.00
2022-12-04T16:14:11.697Z,42.80
2022-12-04T16:16:43.971Z,41.00
2022-12-04T16:19:17.887Z,28.50
2022-12-04T16:21:46.934Z,27.70
2022-12-04T16:24:15.458Z,30.50
2022-12-04T16:26:44.043Z,35.40
2022-12-04T16:29:12.593Z,28.60
2022-12-04T16:31:41.133Z,102.40
2022-12-04T16:34:12.983Z,45.10
2022-12-04T16:36:42.040Z,50.90
2022-12-04T16:39:13.089Z,42.60
2022-12-04T16:41:42.099Z,36.50
2022-12-04T16:44:16.004Z,23.70
2022-12-04T16:46:45.108Z,38.00
2022-12-04T16:49:14.140Z,34.80
2022-12-04T16:51:46.620Z,26.50
2022-12-04T16:54:15.199Z,23.10
2022-12-04T16:56:43.725Z,27.30
2022-12-04T16:59:12.660Z,29.90
2022-12-04T17:01:46.010Z,27.10
2022-12-04T17:04:16.018Z,40.00
2022-12-04T17:06:45.946Z,40.20
2022-12-04T17:09:14.995Z,45.90
2022-12-04T17:11:44.111Z,44.20
2022-12-04T17:14:13.071Z,34.90
2022-12-04T17:16:43.764Z,45.80
2022-12-04T17:19:13.318Z,53.60
2022-12-04T17:21:42.159Z,49.70
2022-12-04T17:24:11.252Z,81.90
2022-12-04T17:26:39.834Z,60.90
2022-12-04T17:29:08.523Z,55.50
2022-12-04T17:31:37.398Z,56.40
2022-12-04T17:34:05.858Z,49.80
2022-12-04T17:36:34.355Z,49.10
2022-12-04T17:39:03.105Z,46.70
2022-12-04T17:41:33.998Z,39.70
2022-12-04T17:44:02.719Z,41.60
2022-12-04T17:46:31.284Z,40.90
2022-12-04T17:49:05.311Z,41.10
2022-12-04T17:51:36.124Z,52.80
2022-12-04T17:54:06.529Z,52.20
2022-12-04T17:56:35.125Z,67.30
2022-12-04T17:59:04.958Z,44.70
2022-12-04T18:01:33.806Z,63.30
2022-12-04T18:04:05.017Z,53.90
2022-12-04T18:06:36.723Z,71.80
2022-12-04T18:09:07.047Z,64.60
2022-12-04T18:11:37.987Z,60.60
2022-12-04T18:14:12.960Z,49.70
2022-12-04T18:16:47.755Z,50.40
2022-12-04T18:19:16.336Z,53.40
2022-12-04T18:21:44.871Z,45.10
2022-12-04T18:24:14.332Z,51.30
2022-12-04T18:26:48.407Z,44.60
2022-12-04T18:29:24.282Z,45.00
2022-12-04T18:31:53.253Z,45.70
2022-12-04T18:34:21.979Z,49.90
2022-12-04T18:36:51.080Z,39.50
2022-12-04T18:39:25.027Z,44.60
2022-12-04T18:41:57.239Z,40.60
2022-12-04T18:44:26.813Z,34.90
2022-12-04T18:46:55.216Z,33.40
2022-12-04T18:49:23.773Z,39.20
2022-12-04T18:51:52.154Z,40.10
2022-12-04T18:54:23.744Z,35.40
2022-12-04T18:56:52.477Z,32.60
2022-12-04T18:59:23.579Z,36.00
2022-12-04T19:01:53.500Z,35.20
2022-12-04T19:04:24.117Z,38.20
2022-12-04T19:06:55.243Z,36.80
2022-12-04T19:12:16.028Z,36.40
2022-12-04T19:14:44.456Z,39.70
2022-12-04T19:17:13.547Z,42.80
2022-12-04T19:19:42.905Z,38.10
2022-12-04T19:22:11.529Z,46.20
2022-12-04T19:24:40.217Z,46.20
2022-12-04T19:27:12.386Z,68.80
2022-12-04T19:29:42.812Z,64.00
2022-12-04T19:32:12.080Z,56.50
2022-12-04T19:34:41.046Z,47.00
2022-12-04T19:37:09.690Z,54.40
2022-12-04T19:39:38.325Z,60.00
2022-12-04T19:42:07.828Z,55.80
2022-12-04T19:44:52.239Z,46.90
2022-12-04T19:47:21.016Z,58.70
2022-12-04T19:49:49.706Z,48.40
2022-12-04T19:52:18.294Z,40.80
2022-12-04T19:54:46.868Z,34.50
2022-12-04T19:57:15.454Z,34.70
2022-12-04T19:59:46.631Z,30.50
2022-12-04T20:02:15.831Z,35.20
2022-12-04T20:04:45.608Z,34.60
2022-12-04T20:07:14.495Z,41.90
2022-12-04T20:09:47.404Z,43.00
2022-12-04T20:12:19.237Z,45.90
2022-12-04T20:14:48.024Z,39.30
2022-12-04T20:17:16.604Z,40.30
2022-12-04T20:19:45.191Z,45.10
2022-12-04T20:22:13.874Z,46.90
2022-12-04T20:24:43.279Z,43.60
2022-12-04T20:27:11.884Z,40.50
2022-12-04T20:29:40.757Z,49.20
2022-12-04T20:32:09.311Z,41.80
2022-12-04T20:34:43.345Z,37.80
2022-12-04T20:37:12.453Z,34.50
2022-12-04T20:39:41.128Z,34.60
2022-12-04T20:42:09.611Z,28.30
2022-12-04T20:44:38.501Z,25.80
2022-12-04T20:47:07.173Z,25.90
2022-12-04T20:49:35.661Z,20.70
2022-12-04T20:52:04.758Z,26.10
2022-12-04T20:54:37.963Z,24.00
2022-12-04T20:57:10.830Z,29.90
2022-12-04T20:59:39.312Z,28.30
2022-12-04T21:02:07.971Z,37.10
2022-12-04T21:04:38.510Z,24.80
2022-12-04T21:07:07.625Z,35.80
2022-12-04T21:09:36.412Z,39.60
2022-12-04T21:12:25.681Z,36.50
2022-12-04T21:15:13.007Z,46.10
2022-12-04T21:17:42.303Z,67.50
2022-12-04T21:20:12.140Z,52.50
2022-12-04T21:22:40.702Z,49.60
2022-12-04T21:25:10.519Z,46.90
2022-12-04T21:27:39.094Z,58.40
2022-12-04T21:30:08.621Z,35.30
2022-12-04T21:32:37.390Z,25.20
2022-12-04T21:35:06.684Z,20.30
2022-12-04T21:37:35.475Z,20.00
2022-12-04T21:40:04.538Z,24.30
2022-12-04T21:42:33.462Z,20.00
2022-12-04T21:45:06.346Z,19.90
2022-12-04T21:47:37.822Z,29.70
2022-12-04T21:50:08.819Z,26.80
2022-12-04T21:52:37.416Z,27.90
2022-12-04T21:55:06.786Z,27.70
2022-12-04T21:57:35.405Z,21.50
2022-12-04T22:00:06.096Z,28.60
2022-12-04T22:02:36.562Z,28.90
2022-12-04T22:05:05.490Z,28.70
2022-12-04T22:07:34.420Z,34.90
2022-12-04T22:10:10.047Z,35.30
2022-12-04T22:12:49.608Z,35.20
2022-12-04T22:15:19.660Z,31.30
2022-12-04T22:17:48.319Z,30.00
2022-12-04T22:20:17.741Z,38.10
2022-12-04T22:22:46.733Z,25.20
2022-12-04T22:25:15.536Z,34.00
2022-12-04T22:27:44.108Z,31.90
2022-12-04T22:30:13.504Z,35.50
2022-12-04T22:32:42.301Z,33.70
2022-12-04T22:35:12.409Z,29.50
2022-12-04T22:37:44.241Z,26.40
2022-12-04T22:40:15.085Z,29.90
2022-12-04T22:42:44.715Z,36.20
2022-12-04T22:45:13.272Z,36.40
2022-12-04T22:47:41.820Z,32.80
2022-12-04T22:50:12.369Z,32.30
2022-12-04T22:52:41.516Z,31.10
2022-12-04T22:55:10.503Z,29.70
2022-12-04T22:57:39.837Z,33.20
2022-12-04T23:00:09.723Z,30.10
2022-12-04T23:02:38.809Z,28.40
2022-12-04T23:05:08.193Z,27.30
2022-12-04T23:07:38.159Z,30.20
2022-12-04T23:10:07.839Z,28.50
2022-12-04T23:12:37.169Z,33.00
2022-12-04T23:15:06.950Z,26.50
2022-12-04T23:17:35.796Z,29.20
2022-12-04T23:20:05.244Z,33.00
2022-12-04T23:22:34.144Z,29.70
2022-12-04T23:25:04.459Z,26.30
2022-12-04T23:27:33.360Z,26.20
2022-12-04T23:30:02.244Z,22.30
2022-12-04T23:32:31.228Z,25.80
2022-12-04T23:35:00.123Z,20.90
2022-12-04T23:37:29.419Z,20.50
2022-12-04T23:39:59.266Z,21.20
2022-12-04T23:42:32.842Z,16.10
2022-12-04T23:45:01.934Z,16.70
2022-12-04T23:47:30.815Z,15.90
2022-12-04T23:50:00.667Z,25.70
2022-12-04T23:52:30.355Z,19.60
2022-12-04T23:54:59.235Z,15.60
2022-12-04T23:57:32.328Z,14.90
